sensor_id;sensor_type;location;lat;lon;timestamp;pressure;altitude;pressure_sealevel;temperature;humidity
12722;BME280;6425;50.316;8.114;2024-01-15T00:00:00;978;;;-2.7;100
12722;BME280;6425;50.316;8.114;2024-01-15T00:03:00;978;;;-2.8;100
12722;BME280;6425;50.316;8.114;2024-01-15T00:06:00;978;;;-2.9;100
12722;BME280;6425;50.316;8.114;2024-01-15T00:09:00;978;;;-2.9;100
12722;BME280;6425;50.316;8.114;2024-01-15T00:12:00;978;;;-2.8;100
12722;BME280;6425;50.316;8.114;2024-01-15T00:15:00;978;;;-2.8;100
12722;BME280;6425;50.316;8.114;2024-01-15T00:18:00;978;;;-2.7;100
12722;BME280;6425;50.316;8.114;2024-01-15T00:21:01;978;;;-2.7;100
12722;BME280;6425;50.316;8.114;2024-01-15T00:24:00;978;;;-2.7;100
12722;BME280;6425;50.316;8.114;2024-01-15T00:27:00;978;;;-2.7;100
12722;BME280;6425;50.316;8.114;2024-01-15T00:30:00;978;;;-2.6;100
12722;BME280;6425;50.316;8.114;2024-01-15T00:33:00;978;;;-2.6;100
12722;BME280;6425;50.316;8.114;2024-01-15T00:36:00;978;;;-2.5;100
12722;BME280;6425;50.316;8.114;2024-01-15T00:39:00;978;;;-2.5;100
12722;BME280;6425;50.316;8.114;2024-01-15T00:42:00;978;;;-2.6;100
12722;BME280;6425;50.316;8.114;2024-01-15T00:45:00;978;;;-2.5;100
12722;BME280;6425;50.316;8.114;2024-01-15T00:48:00;978;;;-2.5;100
12722;BME280;6425;50.316;8.114;2024-01-15T00:51:00;978;;;-2.5;100
12722;BME280;6425;50.316;8.114;2024-01-15T00:54:00;978;;;-2.4;99.9
12722;BME280;6425;50.316;8.114;2024-01-15T00:57:00;978;;;-2.5;100
12722;BME280;6425;50.316;8.114;2024-01-15T01:00:00;978;;;-2.5;100
12722;BME280;6425;50.316;8.114;2024-01-15T01:03:00;978;;;-2.4;100
12722;BME280;6425;50.316;8.114;2024-01-15T01:06:00;978;;;-2.4;100
12722;BME280;6425;50.316;8.114;2024-01-15T01:09:00;978;;;-2.4;100
12722;BME280;6425;50.316;8.114;2024-01-15T01:12:00;978;;;-2.4;100
12722;BME280;6425;50.316;8.114;2024-01-15T01:15:00;978;;;-2.4;100
12722;BME280;6425;50.316;8.114;2024-01-15T01:18:00;978;;;-2.3;99.6
12722;BME280;6425;50.316;8.114;2024-01-15T01:21:02;978;;;-2.4;100
12722;BME280;6425;50.316;8.114;2024-01-15T01:24:00;978;;;-2.4;99.9
12722;BME280;6425;50.316;8.114;2024-01-15T01:27:00;978;;;-2.4;100
12722;BME280;6425;50.316;8.114;2024-01-15T01:30:00;978;;;-2.5;100
12722;BME280;6425;50.316;8.114;2024-01-15T01:33:00;978;;;-2.5;100
12722;BME280;6425;50.316;8.114;2024-01-15T01:36:00;978;;;-2.5;100
12722;BME280;6425;50.316;8.114;2024-01-15T01:39:00;978;;;-2.5;100
12722;BME280;6425;50.316;8.114;2024-01-15T01:42:00;977;;;-2.5;100
12722;BME280;6425;50.316;8.114;2024-01-15T01:45:00;978;;;-2.5;100
12722;BME280;6425;50.316;8.114;2024-01-15T01:48:00;978;;;-2.6;100
12722;BME280;6425;50.316;8.114;2024-01-15T01:51:00;978;;;-2.6;100
12722;BME280;6425;50.316;8.114;2024-01-15T01:54:00;978;;;-2.5;100
12722;BME280;6425;50.316;8.114;2024-01-15T01:57:00;977;;;-2.6;100
12722;BME280;6425;50.316;8.114;2024-01-15T02:00:00;977;;;-2.6;100
12722;BME280;6425;50.316;8.114;2024-01-15T02:03:00;977;;;-2.6;100
12722;BME280;6425;50.316;8.114;2024-01-15T02:06:00;977;;;-2.6;100
12722;BME280;6425;50.316;8.114;2024-01-15T02:09:01;977;;;-2.6;100
12722;BME280;6425;50.316;8.114;2024-01-15T02:12:00;978;;;-2.6;100
12722;BME280;6425;50.316;8.114;2024-01-15T02:15:00;978;;;-2.5;100
12722;BME280;6425;50.316;8.114;2024-01-15T02:18:00;978;;;-2.5;100
12722;BME280;6425;50.316;8.114;2024-01-15T02:21:00;978;;;-2.6;100
12722;BME280;6425;50.316;8.114;2024-01-15T02:24:00;978;;;-2.6;100
12722;BME280;6425;50.316;8.114;2024-01-15T02:27:00;978;;;-2.5;100
12722;BME280;6425;50.316;8.114;2024-01-15T02:30:00;978;;;-2.3;100
12722;BME280;6425;50.316;8.114;2024-01-15T02:33:00;977;;;-2.3;100
12722;BME280;6425;50.316;8.114;2024-01-15T02:36:00;978;;;-2.3;100
12722;BME280;6425;50.316;8.114;2024-01-15T02:39:00;977;;;-2.3;100
12722;BME280;6425;50.316;8.114;2024-01-15T02:42:00;978;;;-2.3;100
12722;BME280;6425;50.316;8.114;2024-01-15T02:45:00;977;;;-2.3;100
12722;BME280;6425;50.316;8.114;2024-01-15T02:48:00;978;;;-2.3;100
12722;BME280;6425;50.316;8.114;2024-01-15T02:51:00;978;;;-2.3;100
12722;BME280;6425;50.316;8.114;2024-01-15T02:54:00;978;;;-2.4;100
12722;BME280;6425;50.316;8.114;2024-01-15T02:57:00;978;;;-2.3;100
12722;BME280;6425;50.316;8.114;2024-01-15T03:00:00;978;;;-2.3;100
12722;BME280;6425;50.316;8.114;2024-01-15T03:03:00;978;;;-2.4;100
12722;BME280;6425;50.316;8.114;2024-01-15T03:06:01;978;;;-2.5;100
12722;BME280;6425;50.316;8.114;2024-01-15T03:09:00;978;;;-2.7;100
12722;BME280;6425;50.316;8.114;2024-01-15T03:12:00;978;;;-2.8;100
12722;BME280;6425;50.316;8.114;2024-01-15T03:15:00;978;;;-2.7;100
12722;BME280;6425;50.316;8.114;2024-01-15T03:18:00;978;;;-2.7;100
12722;BME280;6425;50.316;8.114;2024-01-15T03:21:00;978;;;-2.6;100
12722;BME280;6425;50.316;8.114;2024-01-15T03:24:00;978;;;-2.5;100
12722;BME280;6425;50.316;8.114;2024-01-15T03:27:00;978;;;-2.4;100
12722;BME280;6425;50.316;8.114;2024-01-15T03:30:00;978;;;-2.5;100
12722;BME280;6425;50.316;8.114;2024-01-15T03:33:01;978;;;-2.5;100
12722;BME280;6425;50.316;8.114;2024-01-15T03:36:00;978;;;-2.5;100
12722;BME280;6425;50.316;8.114;2024-01-15T03:39:00;978;;;-2.6;100
12722;BME280;6425;50.316;8.114;2024-01-15T03:42:00;978;;;-2.5;100
12722;BME280;6425;50.316;8.114;2024-01-15T03:45:00;977;;;-2.4;100
12722;BME280;6425;50.316;8.114;2024-01-15T03:48:00;978;;;-2.3;100
12722;BME280;6425;50.316;8.114;2024-01-15T03:51:00;978;;;-2.4;100
12722;BME280;6425;50.316;8.114;2024-01-15T03:54:00;977;;;-2.3;100
12722;BME280;6425;50.316;8.114;2024-01-15T03:57:00;977;;;-2.4;100
12722;BME280;6425;50.316;8.114;2024-01-15T04:00:00;977;;;-2.3;100
12722;BME280;6425;50.316;8.114;2024-01-15T04:03:00;978;;;-2.3;100
12722;BME280;6425;50.316;8.114;2024-01-15T04:06:00;977;;;-2.3;100
12722;BME280;6425;50.316;8.114;2024-01-15T04:09:01;977;;;-2.4;100
12722;BME280;6425;50.316;8.114;2024-01-15T04:12:00;977;;;-2.5;100
12722;BME280;6425;50.316;8.114;2024-01-15T04:15:00;977;;;-2.5;100
12722;BME280;6425;50.316;8.114;2024-01-15T04:18:00;977;;;-2.5;100
12722;BME280;6425;50.316;8.114;2024-01-15T04:21:00;977;;;-2.4;100
12722;BME280;6425;50.316;8.114;2024-01-15T04:24:00;977;;;-2.4;100
12722;BME280;6425;50.316;8.114;2024-01-15T04:27:00;977;;;-2.4;100
12722;BME280;6425;50.316;8.114;2024-01-15T04:30:00;978;;;-2.4;100
12722;BME280;6425;50.316;8.114;2024-01-15T04:33:00;977;;;-2.4;100
12722;BME280;6425;50.316;8.114;2024-01-15T04:36:01;977;;;-2.4;100
12722;BME280;6425;50.316;8.114;2024-01-15T04:39:00;977;;;-2.3;100
12722;BME280;6425;50.316;8.114;2024-01-15T04:42:00;977;;;-2.4;100
12722;BME280;6425;50.316;8.114;2024-01-15T04:45:00;977;;;-2.4;100
12722;BME280;6425;50.316;8.114;2024-01-15T04:48:00;977;;;-2.4;100
12722;BME280;6425;50.316;8.114;2024-01-15T04:51:00;977;;;-2.3;100
12722;BME280;6425;50.316;8.114;2024-01-15T04:54:00;977;;;-2.3;100
12722;BME280;6425;50.316;8.114;2024-01-15T04:57:00;977;;;-2.3;100
12722;BME280;6425;50.316;8.114;2024-01-15T05:00:00;977;;;-2.3;100
12722;BME280;6425;50.316;8.114;2024-01-15T05:03:00;977;;;-2.3;100
12722;BME280;6425;50.316;8.114;2024-01-15T05:06:00;977;;;-2.4;100
12722;BME280;6425;50.316;8.114;2024-01-15T05:09:00;977;;;-2.3;100
12722;BME280;6425;50.316;8.114;2024-01-15T05:12:00;977;;;-2.3;100
12722;BME280;6425;50.316;8.114;2024-01-15T05:15:00;977;;;-2.3;100
12722;BME280;6425;50.316;8.114;2024-01-15T05:18:00;977;;;-2.3;100
12722;BME280;6425;50.316;8.114;2024-01-15T05:21:00;977;;;-2.3;100
12722;BME280;6425;50.316;8.114;2024-01-15T05:24:00;977;;;-2.4;100
12722;BME280;6425;50.316;8.114;2024-01-15T05:27:00;977;;;-2.4;100
12722;BME280;6425;50.316;8.114;2024-01-15T05:30:00;977;;;-2.4;100
12722;BME280;6425;50.316;8.114;2024-01-15T05:33:00;977;;;-2.3;100
12722;BME280;6425;50.316;8.114;2024-01-15T05:36:00;977;;;-2.3;100
12722;BME280;6425;50.316;8.114;2024-01-15T05:39:00;977;;;-2.3;100
12722;BME280;6425;50.316;8.114;2024-01-15T05:42:00;977;;;-2.4;100
12722;BME280;6425;50.316;8.114;2024-01-15T05:45:01;977;;;-2.3;100
12722;BME280;6425;50.316;8.114;2024-01-15T05:48:00;977;;;-2.3;100
12722;BME280;6425;50.316;8.114;2024-01-15T05:51:00;977;;;-2.2;100
12722;BME280;6425;50.316;8.114;2024-01-15T05:54:00;977;;;-2.2;100
12722;BME280;6425;50.316;8.114;2024-01-15T05:57:00;977;;;-2.2;100
12722;BME280;6425;50.316;8.114;2024-01-15T06:00:00;977;;;-2.3;100
12722;BME280;6425;50.316;8.114;2024-01-15T06:03:00;977;;;-2.2;100
12722;BME280;6425;50.316;8.114;2024-01-15T06:06:00;977;;;-2.3;100
12722;BME280;6425;50.316;8.114;2024-01-15T06:09:02;977;;;-2.3;100
12722;BME280;6425;50.316;8.114;2024-01-15T06:12:00;977;;;-2.2;100
12722;BME280;6425;50.316;8.114;2024-01-15T06:15:00;977;;;-2.2;100
12722;BME280;6425;50.316;8.114;2024-01-15T06:18:00;977;;;-2.5;100
12722;BME280;6425;50.316;8.114;2024-01-15T06:21:00;977;;;-2.5;100
12722;BME280;6425;50.316;8.114;2024-01-15T06:24:00;977;;;-2.5;100
12722;BME280;6425;50.316;8.114;2024-01-15T06:27:00;977;;;-2.5;100
12722;BME280;6425;50.316;8.114;2024-01-15T06:30:00;977;;;-2.4;100
12722;BME280;6425;50.316;8.114;2024-01-15T06:33:00;977;;;-2.4;100
12722;BME280;6425;50.316;8.114;2024-01-15T06:36:00;977;;;-2.4;100
12722;BME280;6425;50.316;8.114;2024-01-15T06:39:00;977;;;-2.3;100
12722;BME280;6425;50.316;8.114;2024-01-15T06:42:00;977;;;-2.2;100
12722;BME280;6425;50.316;8.114;2024-01-15T06:45:00;977;;;-2.1;100
12722;BME280;6425;50.316;8.114;2024-01-15T06:48:00;977;;;-2;100
12722;BME280;6425;50.316;8.114;2024-01-15T06:51:00;977;;;-2.1;100
12722;BME280;6425;50.316;8.114;2024-01-15T06:54:00;977;;;-2.3;100
12722;BME280;6425;50.316;8.114;2024-01-15T06:57:00;977;;;-2.3;100
12722;BME280;6425;50.316;8.114;2024-01-15T07:00:00;977;;;-2.3;100
12722;BME280;6425;50.316;8.114;2024-01-15T07:03:00;977;;;-2.2;100
12722;BME280;6425;50.316;8.114;2024-01-15T07:06:00;977;;;-2.2;100
12722;BME280;6425;50.316;8.114;2024-01-15T07:09:01;977;;;-2.3;100
12722;BME280;6425;50.316;8.114;2024-01-15T07:12:00;977;;;-2.3;100
12722;BME280;6425;50.316;8.114;2024-01-15T07:15:00;977;;;-2.4;100
12722;BME280;6425;50.316;8.114;2024-01-15T07:18:00;977;;;-2.4;100
12722;BME280;6425;50.316;8.114;2024-01-15T07:21:00;977;;;-2.3;100
12722;BME280;6425;50.316;8.114;2024-01-15T07:24:00;977;;;-2.3;100
12722;BME280;6425;50.316;8.114;2024-01-15T07:27:00;977;;;-2.2;100
12722;BME280;6425;50.316;8.114;2024-01-15T07:30:00;977;;;-2.1;100
12722;BME280;6425;50.316;8.114;2024-01-15T07:33:00;977;;;-2.1;100
12722;BME280;6425;50.316;8.114;2024-01-15T07:36:00;977;;;-2.1;100
12722;BME280;6425;50.316;8.114;2024-01-15T07:39:00;977;;;-2;100
12722;BME280;6425;50.316;8.114;2024-01-15T07:42:00;977;;;-1.9;100
12722;BME280;6425;50.316;8.114;2024-01-15T07:45:00;977;;;-2;100
12722;BME280;6425;50.316;8.114;2024-01-15T07:48:00;977;;;-1.9;100
12722;BME280;6425;50.316;8.114;2024-01-15T07:51:00;977;;;-1.9;100
12722;BME280;6425;50.316;8.114;2024-01-15T07:54:00;977;;;-1.9;100
12722;BME280;6425;50.316;8.114;2024-01-15T07:57:00;977;;;-1.7;100
12722;BME280;6425;50.316;8.114;2024-01-15T08:00:00;977;;;-1.8;100
12722;BME280;6425;50.316;8.114;2024-01-15T08:03:00;977;;;-1.7;100
12722;BME280;6425;50.316;8.114;2024-01-15T08:06:00;977;;;-1.7;100
12722;BME280;6425;50.316;8.114;2024-01-15T08:09:00;977;;;-1.8;100
12722;BME280;6425;50.316;8.114;2024-01-15T08:12:00;977;;;-1.7;100
12722;BME280;6425;50.316;8.114;2024-01-15T08:15:02;977;;;-1.6;100
12722;BME280;6425;50.316;8.114;2024-01-15T08:18:00;977;;;-1.6;100
12722;BME280;6425;50.316;8.114;2024-01-15T08:21:00;977;;;-1.5;100
12722;BME280;6425;50.316;8.114;2024-01-15T08:24:00;977;;;-1.5;100
12722;BME280;6425;50.316;8.114;2024-01-15T08:27:00;977;;;-1.5;100
12722;BME280;6425;50.316;8.114;2024-01-15T08:30:00;977;;;-1.5;100
12722;BME280;6425;50.316;8.114;2024-01-15T08:33:00;977;;;-1.5;100
12722;BME280;6425;50.316;8.114;2024-01-15T08:36:00;977;;;-1.5;100
12722;BME280;6425;50.316;8.114;2024-01-15T08:39:00;977;;;-1.6;100
12722;BME280;6425;50.316;8.114;2024-01-15T08:42:00;977;;;-1.7;100
12722;BME280;6425;50.316;8.114;2024-01-15T08:45:00;977;;;-1.7;100
12722;BME280;6425;50.316;8.114;2024-01-15T08:48:00;977;;;-1.8;100
12722;BME280;6425;50.316;8.114;2024-01-15T08:51:00;977;;;-1.8;100
12722;BME280;6425;50.316;8.114;2024-01-15T08:54:00;977;;;-1.8;100
12722;BME280;6425;50.316;8.114;2024-01-15T08:57:00;977;;;-1.7;100
12722;BME280;6425;50.316;8.114;2024-01-15T09:00:00;977;;;-1.9;100
12722;BME280;6425;50.316;8.114;2024-01-15T09:03:00;977;;;-1.8;100
12722;BME280;6425;50.316;8.114;2024-01-15T09:06:00;977;;;-1.6;100
12722;BME280;6425;50.316;8.114;2024-01-15T09:09:00;977;;;-1.7;100
12722;BME280;6425;50.316;8.114;2024-01-15T09:12:00;977;;;-1.6;100
12722;BME280;6425;50.316;8.114;2024-01-15T09:15:00;977;;;-1.5;100
12722;BME280;6425;50.316;8.114;2024-01-15T09:18:00;977;;;-1.5;100
12722;BME280;6425;50.316;8.114;2024-01-15T09:21:00;977;;;-1.3;100
12722;BME280;6425;50.316;8.114;2024-01-15T09:24:00;977;;;-1.3;100
12722;BME280;6425;50.316;8.114;2024-01-15T09:27:01;977;;;-1.1;100
12722;BME280;6425;50.316;8.114;2024-01-15T09:30:00;977;;;-1.5;100
12722;BME280;6425;50.316;8.114;2024-01-15T09:33:00;977;;;-1.2;100
12722;BME280;6425;50.316;8.114;2024-01-15T09:36:01;977;;;-1.3;100
12722;BME280;6425;50.316;8.114;2024-01-15T09:39:03;977;;;-1.5;100
12722;BME280;6425;50.316;8.114;2024-01-15T09:42:00;977;;;-1.5;100
12722;BME280;6425;50.316;8.114;2024-01-15T09:45:00;977;;;-1.5;100
12722;BME280;6425;50.316;8.114;2024-01-15T09:48:02;977;;;-1.5;100
12722;BME280;6425;50.316;8.114;2024-01-15T09:51:00;977;;;-1.6;100
12722;BME280;6425;50.316;8.114;2024-01-15T09:54:00;977;;;-1.5;100
12722;BME280;6425;50.316;8.114;2024-01-15T09:57:00;977;;;-1.3;100
12722;BME280;6425;50.316;8.114;2024-01-15T10:00:00;977;;;-1.1;100
12722;BME280;6425;50.316;8.114;2024-01-15T10:03:00;977;;;-0.8;100
12722;BME280;6425;50.316;8.114;2024-01-15T10:06:00;977;;;-1.2;100
12722;BME280;6425;50.316;8.114;2024-01-15T10:09:00;977;;;-1.3;100
12722;BME280;6425;50.316;8.114;2024-01-15T10:12:00;977;;;-1;100
12722;BME280;6425;50.316;8.114;2024-01-15T10:15:00;977;;;-0.8;100
12722;BME280;6425;50.316;8.114;2024-01-15T10:18:00;977;;;-0.5;100
12722;BME280;6425;50.316;8.114;2024-01-15T10:21:00;977;;;-0.8;100
12722;BME280;6425;50.316;8.114;2024-01-15T10:24:02;977;;;-0.9;100
12722;BME280;6425;50.316;8.114;2024-01-15T10:27:04;977;;;-0.8;100
12722;BME280;6425;50.316;8.114;2024-01-15T10:30:00;977;;;-0.9;100
12722;BME280;6425;50.316;8.114;2024-01-15T10:33:00;976;;;-0.9;100
12722;BME280;6425;50.316;8.114;2024-01-15T10:36:00;976;;;-0.8;100
12722;BME280;6425;50.316;8.114;2024-01-15T10:39:00;976;;;-0.8;100
12722;BME280;6425;50.316;8.114;2024-01-15T10:42:00;976;;;-0.8;99.4
12722;BME280;6425;50.316;8.114;2024-01-15T10:45:00;976;;;-0.7;99.2
12722;BME280;6425;50.316;8.114;2024-01-15T10:48:00;976;;;-0.6;99.1
12722;BME280;6425;50.316;8.114;2024-01-15T10:51:00;976;;;-0.7;98.8
12722;BME280;6425;50.316;8.114;2024-01-15T10:54:00;976;;;-0.6;99.3
12722;BME280;6425;50.316;8.114;2024-01-15T10:57:00;976;;;-0.7;98.9
12722;BME280;6425;50.316;8.114;2024-01-15T11:00:00;976;;;-0.8;98.4
12722;BME280;6425;50.316;8.114;2024-01-15T11:03:00;976;;;-0.8;98.5
12722;BME280;6425;50.316;8.114;2024-01-15T11:06:00;976;;;-0.8;98.9
12722;BME280;6425;50.316;8.114;2024-01-15T11:09:00;976;;;-0.8;99.3
12722;BME280;6425;50.316;8.114;2024-01-15T11:12:09;976;;;-0.8;100
12722;BME280;6425;50.316;8.114;2024-01-15T11:15:01;976;;;-0.8;100
12722;BME280;6425;50.316;8.114;2024-01-15T11:18:00;976;;;-0.8;100
12722;BME280;6425;50.316;8.114;2024-01-15T11:21:31;976;;;-0.7;100
12722;BME280;6425;50.316;8.114;2024-01-15T11:24:01;976;;;-0.7;100
12722;BME280;6425;50.316;8.114;2024-01-15T11:27:00;976;;;-0.8;100
12722;BME280;6425;50.316;8.114;2024-01-15T11:30:02;976;;;-0.8;100
12722;BME280;6425;50.316;8.114;2024-01-15T11:33:00;976;;;-0.9;100
12722;BME280;6425;50.316;8.114;2024-01-15T11:36:00;976;;;-0.9;100
12722;BME280;6425;50.316;8.114;2024-01-15T11:39:00;976;;;-1.2;100
12722;BME280;6425;50.316;8.114;2024-01-15T11:42:00;976;;;-1.2;100
12722;BME280;6425;50.316;8.114;2024-01-15T11:45:00;976;;;-1.3;100
12722;BME280;6425;50.316;8.114;2024-01-15T11:48:09;976;;;-1.2;100
12722;BME280;6425;50.316;8.114;2024-01-15T11:51:00;976;;;-1.2;100
12722;BME280;6425;50.316;8.114;2024-01-15T11:54:00;976;;;-1.4;100
12722;BME280;6425;50.316;8.114;2024-01-15T11:57:00;976;;;-1.3;100
12722;BME280;6425;50.316;8.114;2024-01-15T12:00:00;976;;;-1.3;100
12722;BME280;6425;50.316;8.114;2024-01-15T12:03:00;976;;;-1.2;100
12722;BME280;6425;50.316;8.114;2024-01-15T12:06:00;976;;;-1.1;100
12722;BME280;6425;50.316;8.114;2024-01-15T12:09:07;976;;;-0.9;100
12722;BME280;6425;50.316;8.114;2024-01-15T12:12:07;976;;;-0.9;100
12722;BME280;6425;50.316;8.114;2024-01-15T12:15:00;976;;;-0.8;100
12722;BME280;6425;50.316;8.114;2024-01-15T12:18:00;976;;;-0.8;100
12722;BME280;6425;50.316;8.114;2024-01-15T12:21:00;976;;;-0.8;100
12722;BME280;6425;50.316;8.114;2024-01-15T12:24:00;976;;;-0.9;100
12722;BME280;6425;50.316;8.114;2024-01-15T12:27:00;976;;;-1;100
12722;BME280;6425;50.316;8.114;2024-01-15T12:30:00;977;;;-0.9;100
12722;BME280;6425;50.316;8.114;2024-01-15T12:33:00;976;;;-0.9;100
12722;BME280;6425;50.316;8.114;2024-01-15T12:36:00;977;;;-0.9;100
12722;BME280;6425;50.316;8.114;2024-01-15T12:39:00;976;;;-0.9;100
12722;BME280;6425;50.316;8.114;2024-01-15T12:42:00;976;;;-0.9;100
12722;BME280;6425;50.316;8.114;2024-01-15T12:45:00;977;;;-0.9;100
12722;BME280;6425;50.316;8.114;2024-01-15T12:48:01;977;;;-1;100
12722;BME280;6425;50.316;8.114;2024-01-15T12:51:00;977;;;-1;100
12722;BME280;6425;50.316;8.114;2024-01-15T12:54:00;977;;;-0.9;100
12722;BME280;6425;50.316;8.114;2024-01-15T12:57:00;977;;;-1;100
12722;BME280;6425;50.316;8.114;2024-01-15T13:00:00;977;;;-1;100
12722;BME280;6425;50.316;8.114;2024-01-15T13:03:00;977;;;-1;100
12722;BME280;6425;50.316;8.114;2024-01-15T13:06:00;977;;;-0.9;100
12722;BME280;6425;50.316;8.114;2024-01-15T13:09:00;977;;;-1;100
12722;BME280;6425;50.316;8.114;2024-01-15T13:12:01;977;;;-1;100
12722;BME280;6425;50.316;8.114;2024-01-15T13:15:00;977;;;-1;100
12722;BME280;6425;50.316;8.114;2024-01-15T13:18:00;977;;;-1;100
12722;BME280;6425;50.316;8.114;2024-01-15T13:21:00;977;;;-0.9;100
12722;BME280;6425;50.316;8.114;2024-01-15T13:24:00;977;;;-0.9;100
12722;BME280;6425;50.316;8.114;2024-01-15T13:27:00;977;;;-0.7;100
12722;BME280;6425;50.316;8.114;2024-01-15T13:30:00;977;;;-0.6;100
12722;BME280;6425;50.316;8.114;2024-01-15T13:33:00;977;;;-0.6;100
12722;BME280;6425;50.316;8.114;2024-01-15T13:36:00;977;;;-0.6;100
12722;BME280;6425;50.316;8.114;2024-01-15T13:39:00;977;;;-0.6;100
12722;BME280;6425;50.316;8.114;2024-01-15T13:42:00;977;;;-0.6;100
12722;BME280;6425;50.316;8.114;2024-01-15T13:45:00;977;;;-0.6;100
12722;BME280;6425;50.316;8.114;2024-01-15T13:48:00;977;;;-0.6;100
12722;BME280;6425;50.316;8.114;2024-01-15T13:51:00;977;;;-0.6;100
12722;BME280;6425;50.316;8.114;2024-01-15T13:54:00;977;;;-0.5;100
12722;BME280;6425;50.316;8.114;2024-01-15T13:57:00;977;;;-0.4;100
12722;BME280;6425;50.316;8.114;2024-01-15T14:00:00;977;;;-0.3;100
12722;BME280;6425;50.316;8.114;2024-01-15T14:03:00;977;;;-0.2;100
12722;BME280;6425;50.316;8.114;2024-01-15T14:06:00;977;;;-0.2;100
12722;BME280;6425;50.316;8.114;2024-01-15T14:09:00;977;;;0;100
12722;BME280;6425;50.316;8.114;2024-01-15T14:12:00;977;;;0;100
12722;BME280;6425;50.316;8.114;2024-01-15T14:15:00;977;;;0;100
12722;BME280;6425;50.316;8.114;2024-01-15T14:18:00;977;;;0.1;100
12722;BME280;6425;50.316;8.114;2024-01-15T14:21:00;977;;;0.2;99.1
12722;BME280;6425;50.316;8.114;2024-01-15T14:24:00;977;;;0.2;96.5
12722;BME280;6425;50.316;8.114;2024-01-15T14:27:00;977;;;0.4;94
12722;BME280;6425;50.316;8.114;2024-01-15T14:30:00;977;;;0.3;93.8
12722;BME280;6425;50.316;8.114;2024-01-15T14:33:00;977;;;0.2;94.4
12722;BME280;6425;50.316;8.114;2024-01-15T14:36:02;977;;;0.3;92.8
12722;BME280;6425;50.316;8.114;2024-01-15T14:39:00;977;;;0.2;92.1
12722;BME280;6425;50.316;8.114;2024-01-15T14:42:00;977;;;0.1;93.8
12722;BME280;6425;50.316;8.114;2024-01-15T14:45:00;977;;;0;97.1
12722;BME280;6425;50.316;8.114;2024-01-15T14:48:00;977;;;-0.2;99
12722;BME280;6425;50.316;8.114;2024-01-15T14:51:00;977;;;-0.1;98.6
12722;BME280;6425;50.316;8.114;2024-01-15T14:54:00;977;;;-0.2;100
12722;BME280;6425;50.316;8.114;2024-01-15T14:57:00;977;;;-0.1;100
12722;BME280;6425;50.316;8.114;2024-01-15T15:00:00;977;;;-0.1;99.2
12722;BME280;6425;50.316;8.114;2024-01-15T15:03:00;977;;;-0.1;96
12722;BME280;6425;50.316;8.114;2024-01-15T15:06:00;977;;;-0.3;96.2
12722;BME280;6425;50.316;8.114;2024-01-15T15:09:00;978;;;-0.3;98.2
12722;BME280;6425;50.316;8.114;2024-01-15T15:12:00;978;;;-0.6;100
12722;BME280;6425;50.316;8.114;2024-01-15T15:15:00;978;;;-0.6;100
12722;BME280;6425;50.316;8.114;2024-01-15T15:18:00;978;;;-0.6;100
12722;BME280;6425;50.316;8.114;2024-01-15T15:21:00;978;;;-0.7;100
12722;BME280;6425;50.316;8.114;2024-01-15T15:24:00;978;;;-0.8;100
12722;BME280;6425;50.316;8.114;2024-01-15T15:27:00;978;;;-0.8;100
12722;BME280;6425;50.316;8.114;2024-01-15T15:30:00;978;;;-0.8;100
12722;BME280;6425;50.316;8.114;2024-01-15T15:33:00;978;;;-0.8;100
12722;BME280;6425;50.316;8.114;2024-01-15T15:36:01;978;;;-0.8;100
12722;BME280;6425;50.316;8.114;2024-01-15T15:39:00;978;;;-0.8;100
12722;BME280;6425;50.316;8.114;2024-01-15T15:42:00;978;;;-0.8;100
12722;BME280;6425;50.316;8.114;2024-01-15T15:45:00;978;;;-0.8;100
12722;BME280;6425;50.316;8.114;2024-01-15T15:48:00;978;;;-0.7;100
12722;BME280;6425;50.316;8.114;2024-01-15T15:51:00;978;;;-0.7;100
12722;BME280;6425;50.316;8.114;2024-01-15T15:54:00;978;;;-0.7;100
12722;BME280;6425;50.316;8.114;2024-01-15T15:57:00;978;;;-0.6;100
12722;BME280;6425;50.316;8.114;2024-01-15T16:00:00;978;;;-0.6;100
12722;BME280;6425;50.316;8.114;2024-01-15T16:03:00;978;;;-0.6;100
12722;BME280;6425;50.316;8.114;2024-01-15T16:06:00;978;;;-0.6;100
12722;BME280;6425;50.316;8.114;2024-01-15T16:09:00;978;;;-0.6;100
12722;BME280;6425;50.316;8.114;2024-01-15T16:12:00;978;;;-0.7;100
12722;BME280;6425;50.316;8.114;2024-01-15T16:15:00;978;;;-0.7;100
12722;BME280;6425;50.316;8.114;2024-01-15T16:18:00;978;;;-0.7;100
12722;BME280;6425;50.316;8.114;2024-01-15T16:21:00;979;;;-0.8;100
12722;BME280;6425;50.316;8.114;2024-01-15T16:24:00;979;;;-1.1;100
12722;BME280;6425;50.316;8.114;2024-01-15T16:27:00;979;;;-1.3;100
12722;BME280;6425;50.316;8.114;2024-01-15T16:30:00;979;;;-1.3;100
12722;BME280;6425;50.316;8.114;2024-01-15T16:33:00;979;;;-1.4;100
12722;BME280;6425;50.316;8.114;2024-01-15T16:36:01;979;;;-1.4;100
12722;BME280;6425;50.316;8.114;2024-01-15T16:39:00;979;;;-1.4;100
12722;BME280;6425;50.316;8.114;2024-01-15T16:42:00;979;;;-1.3;100
12722;BME280;6425;50.316;8.114;2024-01-15T16:45:00;979;;;-1.3;100
12722;BME280;6425;50.316;8.114;2024-01-15T16:48:00;979;;;-1.3;100
12722;BME280;6425;50.316;8.114;2024-01-15T16:51:00;979;;;-1.2;100
12722;BME280;6425;50.316;8.114;2024-01-15T16:54:00;979;;;-1.1;100
12722;BME280;6425;50.316;8.114;2024-01-15T16:57:00;979;;;-1;100
12722;BME280;6425;50.316;8.114;2024-01-15T17:00:00;979;;;-1;100
12722;BME280;6425;50.316;8.114;2024-01-15T17:03:00;979;;;-0.9;100
12722;BME280;6425;50.316;8.114;2024-01-15T17:06:00;979;;;-1;100
12722;BME280;6425;50.316;8.114;2024-01-15T17:09:00;979;;;-1;100
12722;BME280;6425;50.316;8.114;2024-01-15T17:12:00;979;;;-1;100
12722;BME280;6425;50.316;8.114;2024-01-15T17:15:00;979;;;-0.9;100
12722;BME280;6425;50.316;8.114;2024-01-15T17:18:00;979;;;-0.9;100
12722;BME280;6425;50.316;8.114;2024-01-15T17:21:00;979;;;-0.8;100
12722;BME280;6425;50.316;8.114;2024-01-15T17:24:00;979;;;-0.8;100
12722;BME280;6425;50.316;8.114;2024-01-15T17:27:00;980;;;-0.7;100
12722;BME280;6425;50.316;8.114;2024-01-15T17:30:00;979;;;-0.7;100
12722;BME280;6425;50.316;8.114;2024-01-15T17:33:00;980;;;-0.7;100
12722;BME280;6425;50.316;8.114;2024-01-15T17:36:00;980;;;-0.7;100
12722;BME280;6425;50.316;8.114;2024-01-15T17:39:00;980;;;-0.7;100
12722;BME280;6425;50.316;8.114;2024-01-15T17:42:00;980;;;-0.6;100
12722;BME280;6425;50.316;8.114;2024-01-15T17:45:00;980;;;-0.6;100
12722;BME280;6425;50.316;8.114;2024-01-15T17:48:00;980;;;-0.7;100
12722;BME280;6425;50.316;8.114;2024-01-15T17:51:00;980;;;-0.7;100
12722;BME280;6425;50.316;8.114;2024-01-15T17:54:00;980;;;-0.8;100
12722;BME280;6425;50.316;8.114;2024-01-15T17:57:00;980;;;-0.7;100
12722;BME280;6425;50.316;8.114;2024-01-15T18:00:00;980;;;-0.8;100
12722;BME280;6425;50.316;8.114;2024-01-15T18:03:00;980;;;-0.9;100